createdAt,value
2023-03-08T00:00:51.631Z,4.08
2023-03-08T00:04:49.458Z,4.09
2023-03-08T00:08:47.525Z,4.11
2023-03-08T00:12:52.379Z,4.12
2023-03-08T00:16:50.420Z,4.13
2023-03-08T00:20:48.382Z,4.14
2023-03-08T00:24:46.400Z,4.13
2023-03-08T00:28:44.368Z,4.12
2023-03-08T00:32:42.462Z,4.10
2023-03-08T00:36:40.363Z,4.08
2023-03-08T00:40:41.449Z,4.07
2023-03-08T00:44:39.352Z,4.06
2023-03-08T00:48:37.407Z,4.04
2023-03-08T00:52:36.411Z,4.04
2023-03-08T00:56:34.372Z,4.01
2023-03-08T01:00:32.433Z,3.94
2023-03-08T01:04:30.424Z,3.89
2023-03-08T01:08:29.356Z,3.87
2023-03-08T01:12:29.347Z,3.82
2023-03-08T01:16:34.293Z,3.74
2023-03-08T01:20:32.396Z,3.67
2023-03-08T01:24:30.377Z,3.58
2023-03-08T01:28:28.351Z,3.51
2023-03-08T01:32:26.381Z,3.44
2023-03-08T01:36:27.317Z,3.37
2023-03-08T01:40:29.267Z,3.34
2023-03-08T01:44:35.369Z,3.32
2023-03-08T01:48:35.348Z,3.33
2023-03-08T01:52:54.308Z,3.34
2023-03-08T01:56:53.287Z,3.37
2023-03-08T02:00:53.375Z,3.40
2023-03-08T02:04:51.330Z,3.45
2023-03-08T02:08:51.462Z,3.51
2023-03-08T02:12:50.355Z,3.54
2023-03-08T02:16:48.338Z,3.56
2023-03-08T02:20:49.301Z,3.57
2023-03-08T02:24:47.277Z,3.58
2023-03-08T02:28:47.203Z,3.57
2023-03-08T02:32:45.404Z,3.55
2023-03-08T02:36:43.286Z,3.52
2023-03-08T02:40:42.365Z,3.49
2023-03-08T02:44:40.245Z,3.46
2023-03-08T02:48:40.263Z,3.46
2023-03-08T02:52:38.190Z,3.46
2023-03-08T02:56:36.325Z,3.43
2023-03-08T03:00:39.499Z,3.41
2023-03-08T03:04:37.197Z,3.40
2023-03-08T03:08:35.172Z,3.39
2023-03-08T03:12:33.363Z,3.36
2023-03-08T03:16:32.133Z,3.35
2023-03-08T03:20:30.154Z,3.32
2023-03-08T03:24:28.134Z,3.30
2023-03-08T03:28:26.222Z,3.29
2023-03-08T03:32:24.207Z,3.30
2023-03-08T03:36:27.237Z,3.29
2023-03-08T03:40:25.123Z,3.30
2023-03-08T03:44:25.156Z,3.31
2023-03-08T03:48:24.120Z,3.31
2023-03-08T03:52:22.247Z,3.32
2023-03-08T03:56:32.111Z,3.33
2023-03-08T04:00:31.246Z,3.35
2023-03-08T04:04:35.236Z,3.37
2023-03-08T04:08:33.101Z,3.41
2023-03-08T04:12:31.141Z,3.45
2023-03-08T04:16:32.113Z,3.45
2023-03-08T04:20:33.141Z,3.43
2023-03-08T04:24:31.165Z,3.39
2023-03-08T04:28:33.064Z,3.37
2023-03-08T04:32:31.276Z,3.35
2023-03-08T04:36:31.116Z,3.35
2023-03-08T04:40:29.127Z,3.36
2023-03-08T04:44:27.112Z,3.37
2023-03-08T04:48:27.135Z,3.40
2023-03-08T04:52:25.025Z,3.43
2023-03-08T04:56:23.091Z,3.19
2023-03-08T05:00:21.084Z,2.83
2023-03-08T05:04:19.196Z,2.40
2023-03-08T05:08:17.029Z,2.12
2023-03-08T05:12:15.108Z,1.92
2023-03-08T05:16:21.021Z,1.82
2023-03-08T05:20:19.024Z,1.70
2023-03-08T05:24:16.950Z,1.58
2023-03-08T05:28:15.113Z,1.42
2023-03-08T05:32:13.078Z,1.31
2023-03-08T05:36:11.060Z,1.28
2023-03-08T05:40:12.967Z,1.27
2023-03-08T05:44:10.981Z,1.17
2023-03-08T05:48:09.005Z,0.94
2023-03-08T05:52:07.081Z,0.66
2023-03-08T05:56:04.967Z,0.50
2023-03-08T06:00:04.159Z,0.53
2023-03-08T06:04:08.909Z,0.51
2023-03-08T06:08:07.985Z,0.46
2023-03-08T06:12:05.952Z,0.40
2023-03-08T06:16:07.926Z,0.38
2023-03-08T06:20:06.915Z,0.47
2023-03-08T06:24:05.921Z,0.60
2023-03-08T06:28:03.872Z,0.72
2023-03-08T06:32:02.944Z,0.91
2023-03-08T06:36:20.892Z,1.13
2023-03-08T06:40:19.962Z,1.32
2023-03-08T06:44:17.873Z,1.49
2023-03-08T06:48:15.887Z,1.61
2023-03-08T06:52:14.991Z,1.69
2023-03-08T06:56:13.938Z,1.74
2023-03-08T06:59:51.339Z,1.75
2023-03-08T07:03:15.379Z,1.78
2023-03-08T07:06:39.528Z,1.81
2023-03-08T07:10:04.837Z,1.83
2023-03-08T07:13:29.938Z,1.82
2023-03-08T07:16:54.080Z,1.88
2023-03-08T07:20:20.716Z,1.90
2023-03-08T07:23:44.571Z,1.90
2023-03-08T07:27:08.495Z,1.95
2023-03-08T07:30:32.824Z,1.98
2023-03-08T07:33:58.712Z,2.00
2023-03-08T07:37:23.061Z,2.01
2023-03-08T07:40:47.020Z,2.03
2023-03-08T07:44:11.011Z,2.07
2023-03-08T07:47:34.978Z,2.15
2023-03-08T07:51:08.975Z,2.19
2023-03-08T07:54:33.064Z,2.22
2023-03-08T07:57:57.304Z,2.25
2023-03-08T08:01:21.474Z,2.29
2023-03-08T08:04:45.490Z,2.40
2023-03-08T08:08:10.382Z,2.59
2023-03-08T08:11:35.032Z,2.79
2023-03-08T08:14:59.956Z,3.02
2023-03-08T08:18:24.952Z,3.17
2023-03-08T08:21:49.414Z,3.26
2023-03-08T08:25:13.336Z,3.35
2023-03-08T08:28:38.580Z,3.50
2023-03-08T08:32:04.350Z,3.64
2023-03-08T08:35:42.066Z,3.82
2023-03-08T08:39:07.060Z,4.04
2023-03-08T08:42:30.929Z,4.19
2023-03-08T08:45:58.018Z,4.18
2023-03-08T08:49:22.046Z,4.34
2023-03-08T08:52:47.178Z,4.45
2023-03-08T08:56:26.265Z,4.53
2023-03-08T08:59:51.420Z,4.59
2023-03-08T09:03:15.605Z,4.59
2023-03-08T09:06:40.016Z,4.53
2023-03-08T09:10:04.016Z,4.46
2023-03-08T09:13:28.300Z,4.43
2023-03-08T09:16:53.758Z,4.36
2023-03-08T09:20:21.503Z,4.38
2023-03-08T09:23:47.198Z,4.35
2023-03-08T09:27:11.387Z,4.37
2023-03-08T09:30:35.390Z,4.43
2023-03-08T09:34:01.303Z,4.35
2023-03-08T09:37:28.871Z,4.53
2023-03-08T09:41:15.973Z,4.76
2023-03-08T09:45:07.387Z,5.09
2023-03-08T09:48:33.453Z,5.33
2023-03-08T09:52:04.336Z,5.37
2023-03-08T09:55:31.469Z,5.44
2023-03-08T09:59:01.288Z,5.41
2023-03-08T10:02:28.943Z,5.53
2023-03-08T10:06:05.258Z,5.49
2023-03-08T10:09:37.326Z,5.21
2023-03-08T10:13:20.146Z,5.09
2023-03-08T10:16:49.855Z,5.25
2023-03-08T10:20:25.360Z,5.52
2023-03-08T10:23:59.852Z,5.73
2023-03-08T10:27:33.177Z,5.81
2023-03-08T10:31:00.390Z,5.81
2023-03-08T10:34:31.680Z,5.95
2023-03-08T10:37:55.900Z,6.06
2023-03-08T10:41:22.646Z,6.25
2023-03-08T10:44:55.745Z,6.50
2023-03-08T10:48:22.545Z,6.76
2023-03-08T10:51:59.029Z,6.94
2023-03-08T10:55:31.503Z,6.94
2023-03-08T10:58:58.274Z,7.03
2023-03-08T11:02:24.632Z,7.01
2023-03-08T11:06:00.843Z,7.04
2023-03-08T11:09:28.437Z,7.09
2023-03-08T11:13:17.640Z,6.94
2023-03-08T11:17:08.237Z,6.77
2023-03-08T11:20:45.658Z,6.68
2023-03-08T11:24:40.975Z,6.64
2023-03-08T11:28:15.566Z,6.50
2023-03-08T11:32:13.865Z,6.57
2023-03-08T11:36:01.034Z,6.62
2023-03-08T11:39:34.434Z,6.70
2023-03-08T11:43:19.416Z,6.64
2023-03-08T11:47:02.524Z,6.84
2023-03-08T11:50:40.674Z,6.88
2023-03-08T11:54:16.644Z,6.94
2023-03-08T11:57:47.812Z,7.02
2023-03-08T12:01:27.414Z,7.20
2023-03-08T12:05:06.817Z,7.28
2023-03-08T12:08:38.359Z,7.23
2023-03-08T12:12:26.316Z,7.17
2023-03-08T12:15:56.478Z,6.97
2023-03-08T12:19:47.470Z,6.80
2023-03-08T12:23:44.378Z,6.50
2023-03-08T12:27:28.696Z,6.71
2023-03-08T12:31:26.632Z,7.36
2023-03-08T12:35:05.895Z,7.64
2023-03-08T12:38:41.168Z,7.58
2023-03-08T12:42:11.121Z,7.42
2023-03-08T12:45:35.731Z,7.46
2023-03-08T12:49:00.074Z,7.45
2023-03-08T12:52:41.996Z,7.43
2023-03-08T12:56:12.061Z,7.33
2023-03-08T12:59:39.488Z,7.25
2023-03-08T13:03:23.389Z,7.17
2023-03-08T13:06:53.202Z,7.00
2023-03-08T13:10:20.069Z,6.96
2023-03-08T13:13:57.645Z,7.09
2023-03-08T13:17:30.860Z,7.47
2023-03-08T13:21:06.053Z,7.75
2023-03-08T13:24:50.959Z,7.73
2023-03-08T13:28:18.137Z,7.83
2023-03-08T13:31:42.423Z,8.07
2023-03-08T13:35:07.011Z,8.20
2023-03-08T13:38:37.441Z,8.38
2023-03-08T13:42:29.340Z,8.90
2023-03-08T13:45:56.312Z,9.26
2023-03-08T13:49:24.821Z,9.26
2023-03-08T13:52:49.723Z,9.50
2023-03-08T13:56:25.550Z,9.15
2023-03-08T13:59:52.047Z,8.79
2023-03-08T14:03:20.760Z,8.26
2023-03-08T14:06:56.761Z,8.16
2023-03-08T14:10:24.500Z,8.12
2023-03-08T14:13:53.284Z,7.93
2023-03-08T14:17:24.621Z,7.75
2023-03-08T14:21:01.486Z,7.62
2023-03-08T14:24:28.061Z,7.35
2023-03-08T14:27:52.289Z,7.05
2023-03-08T14:31:43.337Z,6.87
2023-03-08T14:35:45.791Z,6.79
2023-03-08T14:39:46.479Z,6.65
2023-03-08T14:43:44.312Z,6.56
2023-03-08T14:47:45.293Z,6.52
2023-03-08T14:51:54.399Z,6.46
2023-03-08T14:55:52.251Z,6.37
2023-03-08T14:59:55.403Z,6.32
2023-03-08T15:03:53.404Z,6.18
2023-03-08T15:07:51.307Z,6.04
2023-03-08T15:11:50.258Z,6.05
2023-03-08T15:15:48.337Z,6.09
2023-03-08T15:19:48.233Z,6.06
2023-03-08T15:23:51.190Z,6.00
2023-03-08T15:27:49.913Z,5.92
2023-03-08T15:31:48.249Z,5.82
2023-03-08T15:35:46.255Z,5.74
2023-03-08T15:39:44.241Z,5.68
2023-03-08T15:43:42.272Z,5.65
2023-03-08T15:47:40.345Z,5.65
2023-03-08T15:51:44.191Z,5.58
2023-03-08T15:55:43.187Z,5.40
2023-03-08T15:59:41.176Z,5.30
2023-03-08T16:03:39.207Z,5.23
2023-03-08T16:07:37.201Z,5.15
2023-03-08T16:11:35.481Z,5.10
2023-03-08T16:15:33.186Z,5.03
2023-03-08T16:19:31.177Z,4.96
2023-03-08T16:23:29.339Z,4.84
2023-03-08T16:27:27.207Z,4.72
2023-03-08T16:31:25.214Z,4.62
2023-03-08T16:35:23.121Z,4.50
2023-03-08T16:39:22.281Z,4.40
2023-03-08T16:43:20.168Z,4.31
2023-03-08T16:47:18.127Z,4.22
2023-03-08T16:51:16.408Z,4.15
2023-03-08T16:55:14.098Z,4.11
2023-03-08T16:59:16.276Z,4.06
2023-03-08T17:03:14.127Z,3.99
2023-03-08T17:07:15.102Z,3.93
2023-03-08T17:11:13.158Z,3.89
2023-03-08T17:15:12.278Z,3.87
2023-03-08T17:19:11.063Z,3.81
2023-03-08T17:23:09.080Z,3.76
2023-03-08T17:27:07.120Z,3.77
2023-03-08T17:31:05.142Z,3.76
2023-03-08T17:35:03.025Z,3.76
2023-03-08T17:39:01.064Z,3.77
2023-03-08T17:42:59.063Z,3.75
2023-03-08T17:46:57.040Z,3.70
2023-03-08T17:50:55.026Z,3.64
2023-03-08T17:54:54.031Z,3.60
2023-03-08T17:58:52.083Z,3.58
2023-03-08T18:02:50.519Z,3.57
2023-03-08T18:06:53.980Z,3.57
2023-03-08T18:10:54.011Z,3.60
2023-03-08T18:14:54.049Z,3.60
2023-03-08T18:18:52.145Z,3.59
2023-03-08T18:22:54.016Z,3.58
2023-03-08T18:26:52.071Z,3.57
2023-03-08T18:30:49.972Z,3.59
2023-03-08T18:34:49.043Z,3.59
2023-03-08T18:38:46.968Z,3.57
2023-03-08T18:42:45.015Z,3.56
2023-03-08T18:46:44.993Z,3.53
2023-03-08T18:50:43.007Z,3.50
2023-03-08T18:54:40.991Z,3.45
2023-03-08T18:58:39.059Z,3.42
2023-03-08T19:02:36.957Z,3.37
2023-03-08T19:06:35.066Z,3.36
2023-03-08T19:10:33.352Z,3.36
2023-03-08T19:14:31.946Z,3.33
2023-03-08T19:18:31.028Z,3.33
2023-03-08T19:22:33.290Z,3.33
2023-03-08T19:26:44.888Z,3.32
2023-03-08T19:30:42.942Z,3.33
2023-03-08T19:34:52.012Z,3.30
2023-03-08T19:38:51.135Z,3.31
2023-03-08T19:42:48.990Z,3.30
2023-03-08T19:46:47.147Z,3.29
2023-03-08T19:50:44.966Z,3.25
2023-03-08T19:54:43.994Z,3.22
2023-03-08T19:58:42.036Z,3.22
2023-03-08T20:02:40.892Z,3.17
2023-03-08T20:06:56.950Z,3.13
2023-03-08T20:10:56.113Z,3.13
2023-03-08T20:14:53.796Z,3.10
2023-03-08T20:18:52.078Z,3.06
2023-03-08T20:22:49.982Z,3.02
2023-03-08T20:26:49.835Z,3.00
2023-03-08T20:30:48.812Z,3.00
2023-03-08T20:34:46.845Z,3.01
2023-03-08T20:38:44.802Z,3.00
2023-03-08T20:42:43.849Z,2.96
2023-03-08T20:46:44.785Z,2.90
2023-03-08T20:50:43.095Z,2.85
2023-03-08T20:54:43.897Z,2.81
2023-03-08T20:58:41.803Z,2.76
2023-03-08T21:02:39.826Z,2.73
2023-03-08T21:06:40.887Z,2.69
2023-03-08T21:10:39.753Z,2.68
2023-03-08T21:14:37.783Z,2.68
2023-03-08T21:18:35.748Z,2.70
2023-03-08T21:22:33.815Z,2.67
2023-03-08T21:26:32.787Z,2.62
2023-03-08T21:30:30.788Z,2.63
2023-03-08T21:34:28.851Z,2.64
2023-03-08T21:38:26.820Z,2.63
2023-03-08T21:42:24.803Z,2.60
2023-03-08T21:46:22.781Z,2.59
2023-03-08T21:50:20.784Z,2.59
2023-03-08T21:54:18.729Z,2.58
2023-03-08T21:58:16.662Z,2.58
2023-03-08T22:02:14.695Z,2.60
2023-03-08T22:06:12.630Z,2.65
2023-03-08T22:10:10.804Z,2.67
2023-03-08T22:14:10.640Z,2.70
2023-03-08T22:18:08.691Z,2.72
2023-03-08T22:22:07.638Z,2.78
2023-03-08T22:26:05.649Z,2.80
2023-03-08T22:30:03.644Z,2.83
2023-03-08T22:34:02.728Z,2.87
2023-03-08T22:38:00.706Z,2.91
2023-03-08T22:41:59.658Z,2.90
2023-03-08T22:45:57.623Z,2.89
2023-03-08T22:49:55.652Z,2.90
2023-03-08T22:53:54.696Z,2.88
2023-03-08T22:57:52.725Z,2.86
2023-03-08T23:01:50.610Z,2.87
2023-03-08T23:05:48.621Z,2.88
2023-03-08T23:09:46.576Z,2.92
2023-03-08T23:13:47.059Z,2.93
2023-03-08T23:17:44.589Z,2.94
2023-03-08T23:21:44.613Z,2.92
2023-03-08T23:25:42.509Z,2.91
2023-03-08T23:29:40.704Z,2.89
2023-03-08T23:33:38.658Z,2.84
2023-03-08T23:37:36.540Z,2.76
2023-03-08T23:41:34.536Z,2.68
2023-03-08T23:45:32.693Z,2.59
2023-03-08T23:49:30.555Z,2.53
2023-03-08T23:53:28.660Z,2.47
2023-03-08T23:57:26.534Z,2.45
